Terminal Aerodrome Forecast
Issued by NWS

Home | Current Version | Previous Version | Text Only | Print | Product List | Glossary On
Versions: 1 2 3 4 5 6 7 8 9 10 11 12 13 14
357
FTUS43 KIND 241125
TAFHUF
TAF
KHUF 241125Z 2412/2512 19012KT P6SM BKN200 WS020/21045KT
     FM241400 19013G24KT P6SM BKN110
     FM241700 19015G24KT P6SM BKN015
     FM242100 19016G24KT P6SM BKN035
     FM250300 17009KT P6SM OVC030
     FM250500 16010KT P6SM VCSH OVC050
     FM250900 16011KT P6SM OVC045 WS020/18040KT
     FM251000 16011KT P6SM OVC060 WS020/18055KT=

USA.gov is the U.S. government's official web portal to all federal, state and local government web resources and services.